createdAt,value
2022-09-29T00:01:13.957Z,9.31
2022-09-29T00:03:41.784Z,9.40
2022-09-29T00:06:15.495Z,9.37
2022-09-29T00:08:43.852Z,9.40
2022-09-29T00:11:17.571Z,9.43
2022-09-29T00:13:46.811Z,9.39
2022-09-29T00:16:15.492Z,9.47
2022-09-29T00:18:43.235Z,9.56
2022-09-29T00:21:16.746Z,9.52
2022-09-29T00:23:44.516Z,9.61
2022-09-29T00:26:22.470Z,9.65
2022-09-29T00:28:53.781Z,9.54
2022-09-29T00:31:23.364Z,9.57
2022-09-29T00:33:51.384Z,9.60
2022-09-29T00:36:20.530Z,9.61
2022-09-29T00:38:52.938Z,9.53
2022-09-29T00:41:29.423Z,9.43
2022-09-29T00:44:02.887Z,9.43
2022-09-29T00:46:39.876Z,9.46
2022-09-29T00:49:43.596Z,9.44
2022-09-29T00:52:20.308Z,9.33
2022-09-29T00:55:05.972Z,9.24
2022-09-29T00:57:48.828Z,9.36
2022-09-29T01:00:17.920Z,9.24
2022-09-29T01:03:04.778Z,9.23
2022-09-29T01:05:40.005Z,9.11
2022-09-29T01:08:20.758Z,9.13
2022-09-29T01:10:50.614Z,9.17
2022-09-29T01:13:19.453Z,9.10
2022-09-29T01:15:47.252Z,9.05
2022-09-29T01:18:15.222Z,8.99
2022-09-29T01:21:13.090Z,9.04
2022-09-29T01:23:50.127Z,9.05
2022-09-29T01:26:55.119Z,9.07
2022-09-29T01:29:34.694Z,8.96
2022-09-29T01:32:05.338Z,8.98
2022-09-29T01:35:21.254Z,8.86
2022-09-29T01:37:57.881Z,8.80
2022-09-29T01:40:38.898Z,8.79
2022-09-29T01:43:33.521Z,8.67
2022-09-29T01:46:10.257Z,8.68
2022-09-29T01:48:44.536Z,8.63
2022-09-29T01:51:21.490Z,8.75
2022-09-29T01:53:52.764Z,8.60
2022-09-29T01:56:34.055Z,8.62
2022-09-29T01:59:14.951Z,8.56
2022-09-29T02:01:47.262Z,8.45
2022-09-29T02:04:27.321Z,8.34
2022-09-29T02:07:09.103Z,8.27
2022-09-29T02:09:42.734Z,8.25
2022-09-29T02:12:13.625Z,8.31
2022-09-29T02:14:47.441Z,8.31
2022-09-29T02:17:19.924Z,8.29
2022-09-29T02:19:51.068Z,8.23
2022-09-29T02:22:19.688Z,8.16
2022-09-29T02:24:49.275Z,8.36
2022-09-29T02:27:17.481Z,8.24
2022-09-29T02:29:45.851Z,8.21
2022-09-29T02:32:14.494Z,8.19
2022-09-29T02:34:46.894Z,8.10
2022-09-29T02:37:29.169Z,8.11
2022-09-29T02:40:40.084Z,8.15
2022-09-29T02:43:28.698Z,8.13
2022-09-29T02:46:35.296Z,8.11
2022-09-29T02:49:27.735Z,8.07
2022-09-29T02:52:07.344Z,8.07
2022-09-29T02:55:02.448Z,8.11
2022-09-29T02:58:07.393Z,8.08
2022-09-29T03:00:35.990Z,8.15
2022-09-29T03:03:03.915Z,8.09
2022-09-29T03:05:31.727Z,8.05
2022-09-29T03:07:59.542Z,7.90
2022-09-29T03:10:30.230Z,7.94
2022-09-29T03:12:58.418Z,7.93
2022-09-29T03:15:26.268Z,7.97
2022-09-29T03:17:57.321Z,8.00
2022-09-29T03:20:26.588Z,8.00
2022-09-29T03:22:58.366Z,8.02
2022-09-29T03:25:26.614Z,8.07
2022-09-29T03:27:54.358Z,8.01
2022-09-29T03:30:23.465Z,8.05
2022-09-29T03:32:51.119Z,8.14
2022-09-29T03:35:18.785Z,8.19
2022-09-29T03:37:47.008Z,8.24
2022-09-29T03:40:15.021Z,8.29
2022-09-29T03:42:45.362Z,8.47
2022-09-29T03:45:13.298Z,8.51
2022-09-29T03:47:41.308Z,8.55
2022-09-29T03:50:09.351Z,8.56
2022-09-29T03:52:37.242Z,8.59
2022-09-29T03:55:05.155Z,8.60
2022-09-29T03:57:33.065Z,8.59
2022-09-29T04:00:01.269Z,8.62
2022-09-29T04:02:29.155Z,8.53
2022-09-29T04:04:57.114Z,8.45
2022-09-29T04:07:25.002Z,8.37
2022-09-29T04:09:52.641Z,8.30
2022-09-29T04:12:20.349Z,8.21
2022-09-29T04:14:48.177Z,8.17
2022-09-29T04:17:15.886Z,8.18
2022-09-29T04:19:43.734Z,8.18
2022-09-29T04:22:12.127Z,8.06
2022-09-29T04:24:40.333Z,8.05
2022-09-29T04:27:08.047Z,8.15
2022-09-29T04:29:35.994Z,8.11
2022-09-29T04:32:05.989Z,7.95
2022-09-29T04:34:34.541Z,7.92
2022-09-29T04:37:02.625Z,8.06
2022-09-29T04:39:30.477Z,7.99
2022-09-29T04:41:58.133Z,7.98
2022-09-29T04:44:27.243Z,7.94
2022-09-29T04:46:54.932Z,7.88
2022-09-29T04:49:22.650Z,7.89
2022-09-29T04:51:50.831Z,8.06
2022-09-29T04:54:18.535Z,8.06
2022-09-29T04:56:49.308Z,8.10
2022-09-29T04:59:18.054Z,8.09
2022-09-29T05:01:45.904Z,8.16
2022-09-29T05:04:13.793Z,8.08
2022-09-29T05:06:41.917Z,8.10
2022-09-29T05:09:09.944Z,8.14
2022-09-29T05:11:37.734Z,8.27
2022-09-29T05:14:05.972Z,8.40
2022-09-29T05:16:33.710Z,8.38
2022-09-29T05:19:01.442Z,8.39
2022-09-29T05:21:29.723Z,8.41
2022-09-29T05:23:58.103Z,8.51
2022-09-29T05:26:25.996Z,8.48
2022-09-29T05:28:54.018Z,8.57
2022-09-29T05:31:21.833Z,8.56
2022-09-29T05:33:49.856Z,8.66
2022-09-29T05:36:17.736Z,8.75
2022-09-29T05:38:45.457Z,8.76
2022-09-29T05:41:16.327Z,8.82
2022-09-29T05:43:44.611Z,8.88
2022-09-29T05:46:12.393Z,8.88
2022-09-29T05:48:40.251Z,8.97
2022-09-29T05:51:11.453Z,8.95
2022-09-29T05:53:40.241Z,9.08
2022-09-29T05:56:09.931Z,9.21
2022-09-29T05:58:39.021Z,9.21
2022-09-29T06:01:23.090Z,9.40
2022-09-29T06:03:54.078Z,9.40
2022-09-29T06:06:24.606Z,9.54
2022-09-29T06:08:53.056Z,9.73
2022-09-29T06:11:31.540Z,9.86
2022-09-29T06:13:59.968Z,9.88
2022-09-29T06:16:30.036Z,10.10
2022-09-29T06:18:59.971Z,10.22
2022-09-29T06:21:29.478Z,10.43
2022-09-29T06:23:58.668Z,10.82
2022-09-29T06:26:28.520Z,11.01
2022-09-29T06:28:57.379Z,11.20
2022-09-29T06:31:27.896Z,11.18
2022-09-29T06:34:05.096Z,11.23
2022-09-29T06:37:00.111Z,11.10
2022-09-29T06:39:28.369Z,11.35
2022-09-29T06:41:56.971Z,11.39
2022-09-29T06:44:26.846Z,11.49
2022-09-29T06:46:55.099Z,11.29
2022-09-29T06:49:24.288Z,11.23
2022-09-29T06:51:52.346Z,11.29
2022-09-29T06:54:26.927Z,11.09
2022-09-29T06:56:55.753Z,10.90
2022-09-29T06:59:23.728Z,10.72
2022-09-29T07:01:51.899Z,10.72
2022-09-29T07:04:22.156Z,10.95
2022-09-29T07:06:51.280Z,11.11
2022-09-29T07:09:19.959Z,11.16
2022-09-29T07:11:52.417Z,11.13
2022-09-29T07:14:22.919Z,11.43
2022-09-29T07:16:51.689Z,11.48
2022-09-29T07:19:20.440Z,11.51
2022-09-29T07:21:49.311Z,11.47
2022-09-29T07:24:17.438Z,11.36
2022-09-29T07:26:45.649Z,11.88
2022-09-29T07:29:15.870Z,12.17
2022-09-29T07:31:51.369Z,12.51
2022-09-29T07:34:21.442Z,12.42
2022-09-29T07:36:49.961Z,12.67
2022-09-29T07:39:20.207Z,12.51
2022-09-29T07:41:48.382Z,12.71
2022-09-29T07:44:16.773Z,12.64
2022-09-29T07:46:44.993Z,12.79
2022-09-29T07:49:12.874Z,12.85
2022-09-29T07:51:40.881Z,12.97
2022-09-29T07:54:08.622Z,12.97
2022-09-29T07:56:36.400Z,12.75
2022-09-29T07:59:05.185Z,12.61
2022-09-29T08:01:33.641Z,12.68
2022-09-29T08:04:02.481Z,12.78
2022-09-29T08:06:31.229Z,12.68
2022-09-29T08:09:05.081Z,12.65
2022-09-29T08:11:39.028Z,12.52
2022-09-29T08:14:08.309Z,12.43
2022-09-29T08:16:38.201Z,12.38
2022-09-29T08:19:07.752Z,12.50
2022-09-29T08:21:37.251Z,12.59
2022-09-29T08:24:06.899Z,12.62
2022-09-29T08:26:43.458Z,12.79
2022-09-29T08:29:17.121Z,13.58
2022-09-29T08:31:46.294Z,13.98
2022-09-29T08:34:15.517Z,14.00
2022-09-29T08:36:43.875Z,13.83
2022-09-29T08:39:12.390Z,14.09
2022-09-29T08:42:10.771Z,14.23
2022-09-29T08:44:45.657Z,14.75
2022-09-29T08:47:38.196Z,14.66
2022-09-29T08:50:35.778Z,14.45
2022-09-29T08:53:28.781Z,14.80
2022-09-29T08:56:21.316Z,14.96
2022-09-29T08:58:49.178Z,15.06
2022-09-29T09:01:50.822Z,14.73
2022-09-29T09:04:23.009Z,14.76
2022-09-29T09:07:08.958Z,14.59
2022-09-29T09:09:36.886Z,15.00
2022-09-29T09:12:29.463Z,15.22
2022-09-29T09:15:03.284Z,15.66
2022-09-29T09:18:09.153Z,15.90
2022-09-29T09:21:21.808Z,15.52
2022-09-29T09:24:00.528Z,15.26
2022-09-29T09:26:58.004Z,15.13
2022-09-29T09:29:44.309Z,15.23
2022-09-29T09:32:22.055Z,15.27
2022-09-29T09:35:22.066Z,15.39
2022-09-29T09:37:54.321Z,15.27
2022-09-29T09:40:26.333Z,15.08
2022-09-29T09:43:05.046Z,14.89
2022-09-29T09:45:53.414Z,14.85
2022-09-29T09:48:32.713Z,14.48
2022-09-29T09:51:16.506Z,14.62
2022-09-29T09:53:48.574Z,14.83
2022-09-29T09:56:43.290Z,14.89
2022-09-29T09:59:26.536Z,15.10
2022-09-29T10:01:54.397Z,14.91
2022-09-29T10:04:26.074Z,15.07
2022-09-29T10:06:55.102Z,15.12
2022-09-29T10:09:23.374Z,14.95
2022-09-29T10:11:51.848Z,15.15
2022-09-29T10:14:23.549Z,15.16
2022-09-29T10:17:07.196Z,15.34
2022-09-29T10:20:05.656Z,15.62
2022-09-29T10:22:35.058Z,16.09
2022-09-29T10:25:19.570Z,16.23
2022-09-29T10:27:52.528Z,16.46
2022-09-29T10:30:35.420Z,16.80
2022-09-29T10:33:10.399Z,16.97
2022-09-29T10:35:41.327Z,16.88
2022-09-29T10:38:24.050Z,16.67
2022-09-29T10:41:06.293Z,16.22
2022-09-29T10:43:42.867Z,15.97
2022-09-29T10:46:37.373Z,15.71
2022-09-29T10:49:23.344Z,15.61
2022-09-29T10:52:02.631Z,15.17
2022-09-29T10:54:35.363Z,15.03
2022-09-29T10:57:15.439Z,14.91
2022-09-29T10:59:52.883Z,14.93
2022-09-29T11:02:43.886Z,14.78
2022-09-29T11:05:21.207Z,14.89
2022-09-29T11:07:53.056Z,14.72
2022-09-29T11:10:35.613Z,15.08
2022-09-29T11:13:22.416Z,15.10
2022-09-29T11:15:50.717Z,15.19
2022-09-29T11:18:29.352Z,15.71
2022-09-29T11:21:17.659Z,16.00
2022-09-29T11:24:07.161Z,16.02
2022-09-29T11:26:47.052Z,15.80
2022-09-29T11:29:36.970Z,15.79
2022-09-29T11:32:40.027Z,15.83
2022-09-29T11:35:49.827Z,15.72
2022-09-29T11:38:42.747Z,15.82
2022-09-29T11:41:25.514Z,15.63
2022-09-29T11:44:17.844Z,15.80
2022-09-29T11:47:08.537Z,15.59
2022-09-29T11:49:39.143Z,15.69
2022-09-29T11:52:27.637Z,15.29
2022-09-29T11:55:33.231Z,15.06
2022-09-29T11:58:32.444Z,15.02
2022-09-29T12:01:21.789Z,14.89
2022-09-29T12:04:13.215Z,14.86
2022-09-29T12:06:53.210Z,15.01
2022-09-29T12:09:30.646Z,15.00
2022-09-29T12:12:25.130Z,14.96
2022-09-29T12:15:02.307Z,14.95
2022-09-29T12:17:37.226Z,14.90
2022-09-29T12:20:15.346Z,15.05
2022-09-29T12:22:46.229Z,15.20
2022-09-29T12:25:20.730Z,15.17
2022-09-29T12:27:49.937Z,15.25
2022-09-29T12:30:30.367Z,15.33
2022-09-29T12:33:01.444Z,15.22
2022-09-29T12:35:57.846Z,14.88
2022-09-29T12:38:28.709Z,14.90
2022-09-29T12:41:22.700Z,14.93
2022-09-29T12:43:59.661Z,14.74
2022-09-29T12:46:54.946Z,14.88
2022-09-29T12:49:36.369Z,14.85
2022-09-29T12:52:10.155Z,14.97
2022-09-29T12:54:52.542Z,14.95
2022-09-29T12:57:31.144Z,14.90
2022-09-29T13:00:12.934Z,14.91
2022-09-29T13:03:01.107Z,14.91
2022-09-29T13:05:41.045Z,14.74
2022-09-29T13:08:27.839Z,14.72
2022-09-29T13:11:31.048Z,14.76
2022-09-29T13:14:03.893Z,14.37
2022-09-29T13:16:53.250Z,14.24
2022-09-29T13:20:00.538Z,14.47
2022-09-29T13:22:47.555Z,14.11
2022-09-29T13:25:24.220Z,13.85
2022-09-29T13:27:57.311Z,13.53
2022-09-29T13:30:37.129Z,13.37
2022-09-29T13:33:25.872Z,13.36
2022-09-29T13:35:54.494Z,13.32
2022-09-29T13:38:34.533Z,13.29
2022-09-29T13:41:22.492Z,13.51
2022-09-29T13:43:50.332Z,13.35
2022-09-29T13:46:26.950Z,13.37
2022-09-29T13:49:12.138Z,13.19
2022-09-29T13:51:50.695Z,13.17
2022-09-29T13:54:42.095Z,13.05
2022-09-29T13:57:25.385Z,13.12
2022-09-29T13:59:55.306Z,12.84
2022-09-29T14:02:41.087Z,12.69
2022-09-29T14:05:24.185Z,12.98
2022-09-29T14:07:58.698Z,13.25
2022-09-29T14:10:35.734Z,13.35
2022-09-29T14:13:11.813Z,13.43
2022-09-29T14:15:51.418Z,13.41
2022-09-29T14:18:38.460Z,13.31
2022-09-29T14:21:30.283Z,13.37
2022-09-29T14:23:58.075Z,13.15
2022-09-29T14:27:14.000Z,13.07
2022-09-29T14:29:50.705Z,13.04
2022-09-29T14:32:46.797Z,13.00
2022-09-29T14:35:26.467Z,12.91
2022-09-29T14:38:17.724Z,13.05
2022-09-29T14:41:07.284Z,12.86
2022-09-29T14:43:43.290Z,12.89
2022-09-29T14:46:51.620Z,12.65
2022-09-29T14:49:56.876Z,12.49
2022-09-29T14:52:36.439Z,12.55
2022-09-29T14:57:58.549Z,12.01
2022-09-29T15:00:33.802Z,12.00
2022-09-29T15:03:23.662Z,11.90
2022-09-29T15:06:06.008Z,11.82
2022-09-29T15:08:36.610Z,11.83
2022-09-29T15:11:07.707Z,11.63
2022-09-29T15:13:35.429Z,11.52
2022-09-29T15:16:21.349Z,11.53
2022-09-29T15:19:05.079Z,11.45
2022-09-29T15:21:35.836Z,11.28
2022-09-29T15:24:21.875Z,11.23
2022-09-29T15:26:50.007Z,11.16
2022-09-29T15:29:19.741Z,11.15
2022-09-29T15:31:49.713Z,11.08
2022-09-29T15:34:24.809Z,10.95
2022-09-29T15:36:55.181Z,10.87
2022-09-29T15:39:34.357Z,10.71
2022-09-29T15:42:11.497Z,10.61
2022-09-29T15:44:39.266Z,10.61
2022-09-29T15:47:07.112Z,10.40
2022-09-29T15:49:39.810Z,10.20
2022-09-29T15:52:14.923Z,10.06
2022-09-29T15:54:45.169Z,9.90
2022-09-29T15:57:50.343Z,9.73
2022-09-29T16:00:24.194Z,9.56
2022-09-29T16:03:02.318Z,9.41
2022-09-29T16:05:33.438Z,9.36
2022-09-29T16:08:05.939Z,9.19
2022-09-29T16:10:43.379Z,9.06
2022-09-29T16:13:21.054Z,9.00
2022-09-29T16:15:50.826Z,8.84
2022-09-29T16:18:29.921Z,8.72
2022-09-29T16:21:00.301Z,8.64
2022-09-29T16:23:36.393Z,8.45
2022-09-29T16:26:31.358Z,8.25
2022-09-29T16:29:07.929Z,8.24
2022-09-29T16:31:41.077Z,8.23
2022-09-29T16:34:31.290Z,8.17
2022-09-29T16:37:06.851Z,8.10
2022-09-29T16:39:48.327Z,8.02
2022-09-29T16:42:27.176Z,7.92
2022-09-29T16:44:56.849Z,7.88
2022-09-29T16:47:29.545Z,7.75
2022-09-29T16:50:05.528Z,7.60
2022-09-29T16:52:47.793Z,7.59
2022-09-29T16:55:28.048Z,7.54
2022-09-29T16:58:13.790Z,7.41
2022-09-29T17:00:44.796Z,7.31
2022-09-29T17:03:14.922Z,7.33
2022-09-29T17:05:47.773Z,7.26
2022-09-29T17:08:22.994Z,7.15
2022-09-29T17:10:53.310Z,7.21
2022-09-29T17:13:22.395Z,7.26
2022-09-29T17:15:53.336Z,7.17
2022-09-29T17:18:25.070Z,7.12
2022-09-29T17:20:53.089Z,6.92
2022-09-29T17:23:20.928Z,6.84
2022-09-29T17:25:49.651Z,6.79
2022-09-29T17:28:24.582Z,6.71
2022-09-29T17:30:55.582Z,6.72
2022-09-29T17:33:23.778Z,6.59
2022-09-29T17:35:55.697Z,6.52
2022-09-29T17:38:24.587Z,6.43
2022-09-29T17:41:03.676Z,6.39
2022-09-29T17:43:32.487Z,6.55
2022-09-29T17:46:01.617Z,6.46
2022-09-29T17:48:30.894Z,6.42
2022-09-29T17:50:59.849Z,6.32
2022-09-29T17:53:27.707Z,6.24
2022-09-29T17:55:57.848Z,6.30
2022-09-29T17:58:25.884Z,6.36
2022-09-29T18:00:57.396Z,6.28
2022-09-29T18:03:25.610Z,6.21
2022-09-29T18:05:56.695Z,6.08
2022-09-29T18:08:27.497Z,5.93
2022-09-29T18:11:00.922Z,5.89
2022-09-29T18:13:34.045Z,5.83
2022-09-29T18:16:02.356Z,5.86
2022-09-29T18:18:30.392Z,5.87
2022-09-29T18:20:58.407Z,5.90
2022-09-29T18:23:26.382Z,5.80
2022-09-29T18:25:55.681Z,5.91
2022-09-29T18:28:23.454Z,5.82
2022-09-29T18:31:18.717Z,5.82
2022-09-29T18:33:46.566Z,5.62
2022-09-29T18:36:14.461Z,5.57
2022-09-29T18:38:42.278Z,5.57
2022-09-29T18:41:16.137Z,5.51
2022-09-29T18:43:44.117Z,5.43
2022-09-29T18:46:14.104Z,5.40
2022-09-29T18:48:42.403Z,5.31
2022-09-29T18:51:13.705Z,5.45
2022-09-29T18:53:42.361Z,5.41
2022-09-29T18:56:16.842Z,5.35
2022-09-29T18:58:45.116Z,5.26
2022-09-29T19:01:17.143Z,5.33
2022-09-29T19:03:44.934Z,5.22
2022-09-29T19:06:16.051Z,5.15
2022-09-29T19:08:46.773Z,5.11
2022-09-29T19:11:26.152Z,5.07
2022-09-29T19:13:56.240Z,5.06
2022-09-29T19:16:25.892Z,5.04
2022-09-29T19:18:54.028Z,5.03
2022-09-29T19:21:21.776Z,5.04
2022-09-29T19:23:50.799Z,5.09
2022-09-29T19:26:22.509Z,4.99
2022-09-29T19:28:50.604Z,5.02
2022-09-29T19:31:21.005Z,4.96
2022-09-29T19:33:49.148Z,4.98
2022-09-29T19:36:20.292Z,4.96
2022-09-29T19:38:48.209Z,4.95
2022-09-29T19:41:22.574Z,4.86
2022-09-29T19:43:51.237Z,4.85
2022-09-29T19:46:20.727Z,4.89
2022-09-29T19:48:49.230Z,4.76
2022-09-29T19:51:36.428Z,4.76
2022-09-29T19:54:14.710Z,4.71
2022-09-29T19:56:53.972Z,4.71
2022-09-29T19:59:29.259Z,4.69
2022-09-29T20:01:57.778Z,4.74
2022-09-29T20:04:30.215Z,4.81
2022-09-29T20:06:59.572Z,4.67
2022-09-29T20:09:27.704Z,4.60
2022-09-29T20:11:55.502Z,4.55
2022-09-29T20:14:24.951Z,4.68
2022-09-29T20:16:56.076Z,4.81
2022-09-29T20:19:25.089Z,4.78
2022-09-29T20:21:55.897Z,4.59
2022-09-29T20:24:25.278Z,4.57
2022-09-29T20:26:57.509Z,4.58
2022-09-29T20:29:27.143Z,4.62
2022-09-29T20:31:55.109Z,4.87
2022-09-29T20:34:23.098Z,4.70
2022-09-29T20:36:54.754Z,4.80
2022-09-29T20:39:25.638Z,4.53
2022-09-29T20:41:55.437Z,4.38
2022-09-29T20:44:25.732Z,4.27
2022-09-29T20:46:55.712Z,4.29
2022-09-29T20:49:24.967Z,4.21
2022-09-29T20:51:53.290Z,4.13
2022-09-29T20:54:21.628Z,4.17
2022-09-29T20:56:50.898Z,4.16
2022-09-29T20:59:20.475Z,4.36
2022-09-29T21:01:49.078Z,4.23
2022-09-29T21:04:20.331Z,4.07
2022-09-29T21:06:50.831Z,4.16
2022-09-29T21:09:22.272Z,4.06
2022-09-29T21:11:52.081Z,4.02
2022-09-29T21:14:24.255Z,4.00
2022-09-29T21:16:53.248Z,3.92
2022-09-29T21:19:26.728Z,3.96
2022-09-29T21:21:55.577Z,3.91
2022-09-29T21:24:24.164Z,3.85
2022-09-29T21:26:52.221Z,3.81
2022-09-29T21:29:20.148Z,3.94
2022-09-29T21:31:48.433Z,3.95
2022-09-29T21:34:16.784Z,3.93
2022-09-29T21:36:44.571Z,3.88
2022-09-29T21:39:14.655Z,3.80
2022-09-29T21:41:44.060Z,3.78
2022-09-29T21:44:15.567Z,3.72
2022-09-29T21:46:44.285Z,3.73
2022-09-29T21:49:16.224Z,3.68
2022-09-29T21:51:47.461Z,3.60
2022-09-29T21:54:18.837Z,3.55
2022-09-29T21:56:49.122Z,3.56
2022-09-29T21:59:19.780Z,3.53
2022-09-29T22:01:48.674Z,3.68
2022-09-29T22:04:16.978Z,3.63
2022-09-29T22:06:45.473Z,3.58
2022-09-29T22:09:19.798Z,3.52
2022-09-29T22:11:50.005Z,3.48
2022-09-29T22:14:19.306Z,3.48
2022-09-29T22:16:47.261Z,3.50
2022-09-29T22:19:23.802Z,3.60
2022-09-29T22:21:53.506Z,3.49
2022-09-29T22:24:23.928Z,3.51
2022-09-29T22:26:51.991Z,3.41
2022-09-29T22:29:20.470Z,3.36
2022-09-29T22:31:48.719Z,3.37
2022-09-29T22:34:17.003Z,3.38
2022-09-29T22:36:44.918Z,3.39
2022-09-29T22:39:12.793Z,3.37
2022-09-29T22:41:41.118Z,3.31
2022-09-29T22:44:09.033Z,3.28
2022-09-29T22:46:37.484Z,3.26
2022-09-29T22:49:06.075Z,3.35
2022-09-29T22:51:33.925Z,3.42
2022-09-29T22:54:01.919Z,3.46
2022-09-29T22:56:29.746Z,3.30
2022-09-29T22:59:03.643Z,3.25
2022-09-29T23:01:33.373Z,3.15
2022-09-29T23:04:01.886Z,3.22
2022-09-29T23:06:29.755Z,3.20
2022-09-29T23:08:57.768Z,3.14
2022-09-29T23:11:25.688Z,3.08
2022-09-29T23:13:54.000Z,2.97
2022-09-29T23:16:22.725Z,3.03
2022-09-29T23:18:55.129Z,3.04
2022-09-29T23:21:24.751Z,3.09
2022-09-29T23:23:55.997Z,3.19
2022-09-29T23:26:25.674Z,3.08
2022-09-29T23:28:56.444Z,3.04
2022-09-29T23:31:24.480Z,3.14
2022-09-29T23:33:57.530Z,3.16
2022-09-29T23:36:27.447Z,3.24
2022-09-29T23:39:10.639Z,3.15
2022-09-29T23:41:42.325Z,3.07
2022-09-29T23:44:12.587Z,3.12
2022-09-29T23:46:40.841Z,3.06
2022-09-29T23:49:11.518Z,3.00
2022-09-29T23:51:42.119Z,3.06
2022-09-29T23:54:12.246Z,3.00
2022-09-29T23:56:40.386Z,2.96
2022-09-29T23:59:08.449Z,2.91
